createdAt,value
2023-05-19T00:00:04.793Z,58.10
2023-05-19T00:02:39.697Z,58.46
2023-05-19T00:05:08.409Z,58.71
2023-05-19T00:07:37.461Z,58.24
2023-05-19T00:10:06.078Z,59.04
2023-05-19T00:12:35.183Z,59.04
2023-05-19T00:15:03.284Z,59.21
2023-05-19T00:17:30.964Z,59.27
2023-05-19T00:19:58.653Z,59.89
2023-05-19T00:22:26.346Z,60.02
2023-05-19T00:24:53.867Z,60.05
2023-05-19T00:27:21.393Z,59.87
2023-05-19T00:29:50.258Z,60.00
2023-05-19T00:32:17.913Z,60.49
2023-05-19T00:34:47.757Z,60.95
2023-05-19T00:37:15.492Z,61.18
2023-05-19T00:39:43.315Z,60.43
2023-05-19T00:42:10.958Z,60.76
2023-05-19T00:44:41.752Z,60.91
2023-05-19T00:47:10.854Z,60.68
2023-05-19T00:49:38.476Z,61.40
2023-05-19T00:52:07.311Z,61.77
2023-05-19T00:54:35.855Z,62.30
2023-05-19T00:57:04.245Z,61.95
2023-05-19T00:59:31.879Z,62.15
2023-05-19T01:01:59.478Z,62.19
2023-05-19T01:04:29.750Z,61.68
2023-05-19T01:06:57.669Z,62.61
2023-05-19T01:09:25.324Z,63.89
2023-05-19T01:11:53.379Z,64.24
2023-05-19T01:14:21.476Z,64.55
2023-05-19T01:16:56.540Z,65.45
2023-05-19T01:19:46.841Z,65.99
2023-05-19T01:22:22.916Z,65.87
2023-05-19T01:25:19.938Z,65.56
2023-05-19T01:28:17.024Z,65.27
2023-05-19T01:30:46.608Z,65.62
2023-05-19T01:33:15.648Z,65.95
2023-05-19T01:35:44.183Z,65.91
2023-05-19T01:38:13.284Z,66.70
2023-05-19T01:40:42.499Z,66.74
2023-05-19T01:43:11.787Z,66.63
2023-05-19T01:45:39.550Z,66.34
2023-05-19T01:48:11.104Z,65.87
2023-05-19T01:50:39.796Z,66.25
2023-05-19T01:53:07.407Z,66.12
2023-05-19T01:55:35.557Z,65.98
2023-05-19T01:58:08.477Z,66.39
2023-05-19T02:00:45.634Z,65.94
2023-05-19T02:03:26.823Z,65.58
2023-05-19T02:05:57.231Z,65.59
2023-05-19T02:08:28.270Z,66.51
2023-05-19T02:11:01.856Z,66.81
2023-05-19T02:13:32.641Z,67.30
2023-05-19T02:16:05.181Z,67.10
2023-05-19T02:18:35.349Z,67.33
2023-05-19T02:21:02.955Z,67.66
2023-05-19T02:23:30.538Z,66.66
2023-05-19T02:25:58.304Z,66.59
2023-05-19T02:28:28.402Z,66.85
2023-05-19T02:30:56.013Z,67.42
2023-05-19T02:33:25.973Z,69.37
2023-05-19T02:35:54.937Z,68.93
2023-05-19T02:38:22.497Z,69.22
2023-05-19T02:40:50.046Z,69.07
2023-05-19T02:43:17.593Z,69.31
2023-05-19T02:45:45.719Z,69.63
2023-05-19T02:48:13.396Z,70.30
2023-05-19T02:50:41.053Z,69.43
2023-05-19T02:53:10.042Z,69.27
2023-05-19T02:55:37.617Z,69.73
2023-05-19T02:58:05.288Z,69.88
2023-05-19T03:00:33.130Z,69.70
2023-05-19T03:03:02.950Z,69.79
2023-05-19T03:05:31.112Z,70.28
2023-05-19T03:07:58.696Z,70.43
2023-05-19T03:10:27.536Z,69.99
2023-05-19T03:12:55.138Z,70.45
2023-05-19T03:15:23.527Z,70.84
2023-05-19T03:17:51.949Z,71.35
2023-05-19T03:20:19.820Z,71.44
2023-05-19T03:22:47.421Z,71.34
2023-05-19T03:25:15.015Z,71.98
2023-05-19T03:27:44.331Z,69.76
2023-05-19T03:30:13.434Z,69.29
2023-05-19T03:32:54.168Z,69.57
2023-05-19T03:35:22.206Z,70.39
2023-05-19T03:37:50.093Z,69.30
2023-05-19T03:40:18.835Z,68.74
2023-05-19T03:42:47.945Z,69.17
2023-05-19T03:45:15.628Z,69.10
2023-05-19T03:47:47.196Z,70.07
2023-05-19T03:50:48.537Z,70.64
2023-05-19T03:53:20.748Z,71.54
2023-05-19T03:55:49.541Z,70.58
2023-05-19T03:58:18.852Z,71.05
2023-05-19T04:00:46.538Z,70.86
2023-05-19T04:03:15.240Z,71.13
2023-05-19T04:05:42.959Z,70.89
2023-05-19T04:08:10.523Z,72.05
2023-05-19T04:10:38.157Z,72.00
2023-05-19T04:13:05.853Z,71.87
2023-05-19T04:15:34.900Z,70.97
2023-05-19T04:18:02.608Z,70.88
2023-05-19T04:20:31.003Z,70.66
2023-05-19T04:22:58.676Z,70.56
2023-05-19T04:25:28.209Z,70.96
2023-05-19T04:27:57.822Z,71.40
2023-05-19T04:30:26.208Z,70.79
2023-05-19T04:32:55.315Z,71.45
2023-05-19T04:35:23.440Z,71.85
2023-05-19T04:37:54.282Z,70.99
2023-05-19T04:40:26.203Z,71.11
2023-05-19T04:42:54.180Z,71.41
2023-05-19T04:45:23.252Z,71.92
2023-05-19T04:47:58.611Z,71.82
2023-05-19T04:50:26.209Z,72.07
2023-05-19T04:52:53.898Z,72.19
2023-05-19T04:55:21.863Z,71.89
2023-05-19T04:57:50.719Z,71.01
2023-05-19T05:00:21.644Z,71.77
2023-05-19T05:03:00.835Z,72.06
2023-05-19T05:05:30.702Z,73.06
2023-05-19T05:07:58.553Z,73.18
2023-05-19T05:10:28.915Z,73.32
2023-05-19T05:12:57.459Z,73.54
2023-05-19T05:15:28.569Z,73.54
2023-05-19T05:17:57.687Z,73.45
2023-05-19T05:20:28.522Z,73.23
2023-05-19T05:22:57.683Z,72.84
2023-05-19T05:25:26.772Z,72.62
2023-05-19T05:27:54.524Z,72.30
2023-05-19T05:30:22.125Z,70.89
2023-05-19T05:32:50.443Z,71.81
2023-05-19T05:35:46.680Z,71.54
2023-05-19T05:38:15.253Z,71.33
2023-05-19T05:40:43.153Z,70.71
2023-05-19T05:43:10.948Z,70.85
2023-05-19T05:45:45.271Z,70.73
2023-05-19T05:48:13.596Z,70.45
2023-05-19T05:50:41.628Z,70.15
2023-05-19T05:53:13.917Z,69.57
2023-05-19T05:55:42.519Z,69.00
2023-05-19T05:58:11.130Z,68.85
2023-05-19T06:00:38.933Z,68.36
2023-05-19T06:03:06.601Z,68.23
2023-05-19T06:05:34.357Z,68.13
2023-05-19T06:08:02.259Z,68.11
2023-05-19T06:10:32.440Z,68.10
2023-05-19T06:13:00.403Z,67.53
2023-05-19T06:15:28.103Z,67.18
2023-05-19T06:18:01.812Z,65.51
2023-05-19T06:20:30.045Z,64.45
2023-05-19T06:22:58.485Z,64.34
2023-05-19T06:25:27.882Z,63.94
2023-05-19T06:27:57.726Z,64.52
2023-05-19T06:30:25.665Z,64.42
2023-05-19T06:33:13.484Z,64.25
2023-05-19T06:35:41.137Z,63.91
2023-05-19T06:38:08.825Z,63.50
2023-05-19T06:40:37.155Z,63.23
2023-05-19T06:43:06.144Z,62.63
2023-05-19T06:45:54.370Z,62.53
2023-05-19T06:48:23.264Z,62.34
2023-05-19T06:50:51.681Z,62.73
2023-05-19T06:53:21.049Z,62.54
2023-05-19T06:55:58.561Z,61.44
2023-05-19T06:58:29.786Z,61.40
2023-05-19T07:00:58.252Z,61.68
2023-05-19T07:03:30.977Z,61.55
2023-05-19T07:05:59.561Z,61.15
2023-05-19T07:08:27.951Z,59.19
2023-05-19T07:10:56.287Z,58.90
2023-05-19T07:13:25.967Z,58.12
2023-05-19T07:15:56.641Z,58.27
2023-05-19T07:18:25.389Z,58.04
2023-05-19T07:20:53.189Z,58.07
2023-05-19T07:23:21.630Z,57.73
2023-05-19T07:25:49.213Z,57.97
2023-05-19T07:28:16.773Z,58.16
2023-05-19T07:30:44.566Z,57.13
2023-05-19T07:33:13.577Z,56.79
2023-05-19T07:35:41.224Z,56.77
2023-05-19T07:38:09.005Z,56.67
2023-05-19T07:40:36.553Z,56.64
2023-05-19T07:43:04.184Z,55.41
2023-05-19T07:45:31.771Z,55.36
2023-05-19T07:47:59.440Z,54.83
2023-05-19T07:50:28.388Z,55.64
2023-05-19T07:52:56.051Z,54.49
2023-05-19T07:55:23.763Z,54.62
2023-05-19T07:57:51.399Z,53.84
2023-05-19T08:00:19.429Z,53.60
2023-05-19T08:02:47.327Z,51.94
2023-05-19T08:05:15.000Z,51.18
2023-05-19T08:07:43.866Z,50.89
2023-05-19T08:10:11.519Z,49.94
2023-05-19T08:12:39.107Z,49.45
2023-05-19T08:15:07.461Z,48.39
2023-05-19T08:17:35.140Z,49.20
2023-05-19T08:20:03.964Z,49.22
2023-05-19T08:22:31.528Z,48.52
2023-05-19T08:25:01.359Z,47.89
2023-05-19T08:27:28.968Z,47.74
2023-05-19T08:29:57.297Z,47.58
2023-05-19T08:32:25.032Z,46.37
2023-05-19T08:34:52.961Z,46.38
2023-05-19T08:37:20.609Z,47.28
2023-05-19T08:39:48.190Z,47.26
2023-05-19T08:42:17.210Z,47.62
2023-05-19T08:44:44.818Z,47.49
2023-05-19T08:47:13.942Z,47.83
2023-05-19T08:49:45.142Z,47.70
2023-05-19T08:52:20.938Z,46.29
2023-05-19T08:54:53.268Z,46.21
2023-05-19T08:57:22.025Z,46.37
2023-05-19T08:59:50.182Z,46.48
2023-05-19T09:02:17.778Z,44.89
2023-05-19T09:04:47.995Z,45.72
2023-05-19T09:07:15.915Z,45.48
2023-05-19T09:09:44.070Z,46.34
2023-05-19T09:12:12.097Z,45.25
2023-05-19T09:14:41.191Z,45.69
2023-05-19T09:17:08.955Z,44.57
2023-05-19T09:19:36.648Z,44.95
2023-05-19T09:22:04.784Z,45.71
2023-05-19T09:24:32.984Z,45.58
2023-05-19T09:27:00.637Z,45.59
2023-05-19T09:29:28.464Z,45.18
2023-05-19T09:32:01.068Z,45.66
2023-05-19T09:34:29.004Z,45.76
2023-05-19T09:36:57.835Z,45.08
2023-05-19T09:39:25.909Z,44.54
2023-05-19T09:41:54.800Z,44.28
2023-05-19T09:44:24.054Z,45.15
2023-05-19T09:46:53.306Z,45.67
2023-05-19T09:49:23.895Z,45.55
2023-05-19T09:51:52.249Z,44.22
2023-05-19T09:54:21.485Z,44.58
2023-05-19T09:56:53.036Z,44.53
2023-05-19T09:59:21.237Z,43.78
2023-05-19T10:01:49.639Z,42.94
2023-05-19T10:04:17.700Z,42.28
2023-05-19T10:06:47.482Z,41.66
2023-05-19T10:09:15.941Z,41.88
2023-05-19T10:11:44.409Z,42.09
2023-05-19T10:14:12.019Z,40.85
2023-05-19T10:16:39.756Z,40.52
2023-05-19T10:19:08.860Z,41.30
2023-05-19T10:21:36.505Z,41.61
2023-05-19T10:24:05.643Z,42.11
2023-05-19T10:26:33.700Z,41.61
2023-05-19T10:29:01.922Z,41.31
2023-05-19T10:31:29.765Z,41.28
2023-05-19T10:34:13.455Z,41.59
2023-05-19T10:36:46.501Z,41.65
2023-05-19T10:39:19.282Z,41.13
2023-05-19T10:41:48.670Z,41.32
2023-05-19T10:44:22.313Z,41.26
2023-05-19T10:46:50.570Z,40.75
2023-05-19T10:49:21.801Z,40.08
2023-05-19T10:51:49.690Z,40.72
2023-05-19T10:54:20.947Z,40.83
2023-05-19T10:56:48.538Z,40.65
2023-05-19T10:59:33.440Z,40.02
2023-05-19T11:02:04.712Z,40.62
2023-05-19T11:04:51.165Z,40.62
2023-05-19T11:07:21.540Z,40.69
2023-05-19T11:09:52.693Z,40.61
2023-05-19T11:12:25.391Z,40.59
2023-05-19T11:14:53.558Z,40.39
2023-05-19T11:17:23.580Z,40.35
2023-05-19T11:19:55.510Z,39.98
2023-05-19T11:22:25.594Z,40.17
2023-05-19T11:24:56.063Z,40.15
2023-05-19T11:27:31.176Z,40.40
2023-05-19T11:30:00.507Z,40.49
2023-05-19T11:32:33.361Z,40.04
2023-05-19T11:35:01.258Z,40.16
2023-05-19T11:37:29.606Z,40.20
2023-05-19T11:39:58.954Z,40.01
2023-05-19T11:42:26.484Z,40.23
2023-05-19T11:44:57.539Z,39.95
2023-05-19T11:47:25.137Z,39.67
2023-05-19T11:49:52.880Z,39.88
2023-05-19T11:52:24.461Z,39.62
2023-05-19T11:54:52.417Z,39.91
2023-05-19T11:57:21.304Z,39.20
2023-05-19T11:59:49.794Z,38.75
2023-05-19T12:02:18.937Z,39.11
2023-05-19T12:04:47.264Z,38.92
2023-05-19T12:07:17.540Z,38.98
2023-05-19T12:09:45.772Z,38.80
2023-05-19T12:12:14.605Z,39.38
2023-05-19T12:14:43.828Z,39.96
2023-05-19T12:17:13.157Z,39.73
2023-05-19T12:19:41.155Z,39.65
2023-05-19T12:22:09.246Z,39.44
2023-05-19T12:24:37.888Z,39.06
2023-05-19T12:27:12.437Z,38.86
2023-05-19T12:29:40.490Z,38.75
2023-05-19T12:32:10.670Z,39.04
2023-05-19T12:34:39.080Z,38.36
2023-05-19T12:37:07.024Z,38.11
2023-05-19T12:39:34.679Z,38.67
2023-05-19T12:42:03.344Z,38.91
2023-05-19T12:44:31.425Z,38.84
2023-05-19T12:46:59.390Z,38.89
2023-05-19T12:49:28.318Z,38.76
2023-05-19T12:51:55.891Z,38.82
2023-05-19T12:54:23.600Z,39.26
2023-05-19T12:56:52.143Z,39.29
2023-05-19T12:59:34.646Z,38.49
2023-05-19T13:02:06.299Z,38.81
2023-05-19T13:04:36.200Z,38.83
2023-05-19T13:07:03.890Z,38.64
2023-05-19T13:09:38.067Z,38.75
2023-05-19T13:12:06.522Z,38.81
2023-05-19T13:14:34.205Z,38.71
2023-05-19T13:17:01.870Z,38.35
2023-05-19T13:19:30.027Z,38.74
2023-05-19T13:21:59.862Z,38.90
2023-05-19T13:24:27.421Z,39.52
2023-05-19T13:26:55.982Z,39.39
2023-05-19T13:29:23.868Z,39.49
2023-05-19T13:31:51.642Z,39.61
2023-05-19T13:34:19.718Z,39.58
2023-05-19T13:36:48.895Z,39.72
2023-05-19T13:39:17.837Z,39.84
2023-05-19T13:41:45.376Z,39.44
2023-05-19T13:44:12.961Z,39.55
2023-05-19T13:46:45.699Z,39.35
2023-05-19T13:49:14.047Z,38.93
2023-05-19T13:51:43.652Z,39.07
2023-05-19T13:54:11.369Z,39.29
2023-05-19T13:56:40.524Z,39.90
2023-05-19T13:59:08.260Z,39.84
2023-05-19T14:01:35.901Z,40.17
2023-05-19T14:04:03.552Z,40.80
2023-05-19T14:06:32.100Z,40.83
2023-05-19T14:08:59.657Z,40.51
2023-05-19T14:11:27.216Z,40.70
2023-05-19T14:13:56.110Z,41.14
2023-05-19T14:16:26.132Z,41.18
2023-05-19T14:18:54.071Z,41.51
2023-05-19T14:21:21.618Z,42.12
2023-05-19T14:23:49.260Z,41.95
2023-05-19T14:26:16.956Z,42.75
2023-05-19T14:28:44.492Z,42.36
2023-05-19T14:31:13.632Z,42.47
2023-05-19T14:33:41.302Z,42.08
2023-05-19T14:36:09.155Z,41.94
2023-05-19T14:38:36.919Z,42.38
2023-05-19T14:41:04.780Z,42.78
2023-05-19T14:43:32.292Z,42.53
2023-05-19T14:46:00.063Z,42.85
2023-05-19T14:48:28.969Z,43.15
2023-05-19T14:50:56.469Z,43.06
2023-05-19T14:53:24.052Z,43.40
2023-05-19T14:55:51.636Z,43.63
2023-05-19T14:58:27.576Z,43.68
2023-05-19T15:00:58.635Z,43.94
2023-05-19T15:03:26.310Z,43.90
2023-05-19T15:05:55.227Z,44.65
2023-05-19T15:08:23.429Z,44.66
2023-05-19T15:10:51.299Z,44.84
2023-05-19T15:13:19.149Z,45.22
2023-05-19T15:15:46.685Z,45.28
2023-05-19T15:18:16.282Z,45.38
2023-05-19T15:20:46.423Z,45.69
2023-05-19T15:23:15.816Z,45.60
2023-05-19T15:25:51.205Z,45.94
2023-05-19T15:28:18.971Z,45.81
2023-05-19T15:30:46.546Z,45.92
2023-05-19T15:33:14.239Z,45.92
2023-05-19T15:35:41.866Z,46.20
2023-05-19T15:38:09.415Z,46.34
2023-05-19T15:40:36.962Z,46.67
2023-05-19T15:43:05.816Z,46.97
2023-05-19T15:45:33.367Z,47.41
2023-05-19T15:48:01.576Z,47.40
2023-05-19T15:50:29.213Z,47.43
2023-05-19T15:52:56.774Z,47.71
2023-05-19T15:55:24.295Z,47.83
2023-05-19T15:57:51.830Z,47.84
2023-05-19T16:00:21.013Z,47.80
2023-05-19T16:02:48.654Z,47.99
2023-05-19T16:05:16.736Z,48.03
2023-05-19T16:07:44.325Z,48.30
2023-05-19T16:10:12.005Z,48.64
2023-05-19T16:12:39.628Z,49.06
2023-05-19T16:15:08.216Z,49.19
2023-05-19T16:17:37.294Z,49.74
2023-05-19T16:20:05.500Z,49.36
2023-05-19T16:22:33.038Z,49.65
2023-05-19T16:25:00.661Z,49.61
2023-05-19T16:27:28.161Z,49.87
2023-05-19T16:29:56.504Z,50.18
2023-05-19T16:32:24.165Z,50.35
2023-05-19T16:34:53.132Z,50.61
2023-05-19T16:37:20.898Z,51.00
2023-05-19T16:39:48.708Z,51.19
2023-05-19T16:42:16.327Z,51.12
2023-05-19T16:44:43.970Z,51.37
2023-05-19T16:47:11.481Z,51.64
2023-05-19T16:49:40.416Z,51.84
2023-05-19T16:52:09.276Z,52.17
2023-05-19T16:54:36.896Z,52.06
2023-05-19T16:57:04.759Z,52.27
2023-05-19T16:59:32.272Z,52.21
2023-05-19T17:01:59.853Z,52.30
2023-05-19T17:04:29.400Z,52.76
2023-05-19T17:06:58.276Z,53.07
2023-05-19T17:09:27.222Z,53.44
2023-05-19T17:11:54.952Z,53.56
2023-05-19T17:14:23.045Z,53.78
2023-05-19T17:16:52.390Z,54.04
2023-05-19T17:19:20.079Z,54.20
2023-05-19T17:21:47.672Z,54.37
2023-05-19T17:24:15.249Z,54.37
2023-05-19T17:26:44.128Z,54.34
2023-05-19T17:29:13.634Z,54.79
2023-05-19T17:31:41.430Z,54.70
2023-05-19T17:34:09.114Z,54.59
2023-05-19T17:36:36.718Z,54.88
2023-05-19T17:39:04.323Z,55.04
2023-05-19T17:41:31.897Z,55.03
2023-05-19T17:44:00.915Z,55.18
2023-05-19T17:46:30.197Z,55.35
2023-05-19T17:48:57.784Z,55.26
2023-05-19T17:51:25.881Z,55.71
2023-05-19T17:53:54.016Z,55.49
2023-05-19T17:56:23.056Z,55.71
2023-05-19T17:58:51.118Z,55.68
2023-05-19T18:01:23.756Z,55.98
2023-05-19T18:03:51.907Z,56.11
2023-05-19T18:06:20.202Z,55.94
2023-05-19T18:08:50.521Z,56.03
2023-05-19T18:11:19.091Z,56.65
2023-05-19T18:13:46.637Z,56.63
2023-05-19T18:16:14.236Z,56.54
2023-05-19T18:18:44.622Z,56.97
2023-05-19T18:21:14.323Z,56.84
2023-05-19T18:23:42.268Z,57.47
2023-05-19T18:26:11.321Z,57.25
2023-05-19T18:28:38.984Z,57.42
2023-05-19T18:31:07.953Z,57.87
2023-05-19T18:33:35.484Z,57.41
2023-05-19T18:36:04.813Z,57.33
2023-05-19T18:38:32.459Z,57.39
2023-05-19T18:41:00.759Z,57.37
2023-05-19T18:43:30.088Z,57.74
2023-05-19T18:45:58.231Z,57.76
2023-05-19T18:48:26.908Z,57.74
2023-05-19T18:50:54.654Z,57.83
2023-05-19T18:53:23.676Z,57.95
2023-05-19T18:55:51.221Z,57.99
2023-05-19T18:58:19.203Z,57.81
2023-05-19T19:00:50.753Z,58.36
2023-05-19T19:03:18.499Z,58.45
2023-05-19T19:05:46.108Z,58.34
2023-05-19T19:08:13.650Z,58.95
2023-05-19T19:10:43.336Z,58.59
2023-05-19T19:13:10.920Z,59.08
2023-05-19T19:15:39.665Z,59.00
2023-05-19T19:18:11.349Z,59.57
2023-05-19T19:20:39.010Z,59.18
2023-05-19T19:23:06.824Z,59.57
2023-05-19T19:25:34.469Z,59.70
2023-05-19T19:28:03.597Z,59.56
2023-05-19T19:30:31.263Z,59.67
2023-05-19T19:32:59.482Z,59.82
2023-05-19T19:35:27.229Z,59.68
2023-05-19T19:37:54.740Z,60.09
2023-05-19T19:40:22.673Z,59.85
2023-05-19T19:42:50.221Z,60.09
2023-05-19T19:45:19.541Z,60.32
2023-05-19T19:47:47.138Z,59.90
2023-05-19T19:50:14.864Z,59.87
2023-05-19T19:52:42.631Z,60.09
2023-05-19T19:55:10.989Z,60.35
2023-05-19T19:57:38.539Z,60.49
2023-05-19T20:00:08.577Z,60.51
2023-05-19T20:02:51.424Z,60.61
2023-05-19T20:05:25.981Z,60.82
2023-05-19T20:07:53.636Z,61.13
2023-05-19T20:10:21.388Z,61.49
2023-05-19T20:12:50.476Z,61.45
2023-05-19T20:15:18.311Z,61.80
2023-05-19T20:17:47.227Z,61.71
2023-05-19T20:20:15.173Z,61.54
2023-05-19T20:22:44.321Z,61.89
2023-05-19T20:25:12.114Z,62.26
2023-05-19T20:27:39.658Z,62.05
2023-05-19T20:30:08.434Z,61.96
2023-05-19T20:32:36.245Z,62.38
2023-05-19T20:35:05.800Z,62.17
2023-05-19T20:37:33.379Z,62.51
2023-05-19T20:40:00.950Z,62.72
2023-05-19T20:42:28.559Z,62.75
2023-05-19T20:44:56.294Z,62.74
2023-05-19T20:47:24.007Z,62.55
2023-05-19T20:49:51.590Z,62.44
2023-05-19T20:52:21.823Z,62.89
2023-05-19T20:54:49.402Z,62.96
2023-05-19T20:57:16.982Z,63.04
2023-05-19T20:59:44.676Z,63.11
2023-05-19T21:02:12.562Z,63.05
2023-05-19T21:04:40.167Z,63.37
2023-05-19T21:07:07.823Z,62.97
2023-05-19T21:09:36.744Z,63.03
2023-05-19T21:12:04.612Z,63.03
2023-05-19T21:14:32.122Z,63.36
2023-05-19T21:16:59.724Z,63.54
2023-05-19T21:19:27.581Z,63.79
2023-05-19T21:21:56.929Z,63.47
2023-05-19T21:24:24.491Z,63.97
2023-05-19T21:26:53.346Z,64.11
2023-05-19T21:29:20.860Z,63.95
2023-05-19T21:31:52.573Z,64.05
2023-05-19T21:34:20.418Z,64.46
2023-05-19T21:36:49.464Z,64.30
2023-05-19T21:39:17.623Z,63.95
2023-05-19T21:41:45.205Z,64.31
2023-05-19T21:44:14.067Z,64.44
2023-05-19T21:46:49.362Z,64.33
2023-05-19T21:49:17.268Z,64.83
2023-05-19T21:51:44.839Z,64.78
2023-05-19T21:54:12.385Z,64.72
2023-05-19T21:56:39.901Z,65.34
2023-05-19T21:59:07.632Z,64.75
2023-05-19T22:01:36.693Z,64.56
2023-05-19T22:04:04.584Z,64.73
2023-05-19T22:06:32.331Z,64.72
2023-05-19T22:09:01.146Z,64.96
2023-05-19T22:11:28.762Z,65.61
2023-05-19T22:13:56.345Z,64.79
2023-05-19T22:16:23.898Z,64.51
2023-05-19T22:18:52.832Z,64.50
2023-05-19T22:21:20.664Z,65.00
2023-05-19T22:23:48.219Z,64.70
2023-05-19T22:26:16.003Z,64.76
2023-05-19T22:28:43.536Z,64.81
2023-05-19T22:31:11.098Z,64.56
2023-05-19T22:33:38.613Z,64.82
2023-05-19T22:36:08.378Z,64.86
2023-05-19T22:38:36.291Z,64.64
2023-05-19T22:41:03.878Z,64.89
2023-05-19T22:43:31.440Z,64.60
2023-05-19T22:45:58.978Z,65.10
2023-05-19T22:48:26.542Z,65.08
2023-05-19T22:50:54.163Z,65.19
2023-05-19T22:53:23.021Z,65.61
2023-05-19T22:55:50.558Z,65.35
2023-05-19T22:58:18.265Z,65.90
2023-05-19T23:00:45.940Z,65.61
2023-05-19T23:03:13.548Z,65.41
2023-05-19T23:05:41.366Z,65.57
2023-05-19T23:08:08.956Z,65.41
2023-05-19T23:10:37.805Z,65.58
2023-05-19T23:13:05.473Z,65.72
2023-05-19T23:15:33.283Z,65.87
2023-05-19T23:18:01.311Z,65.96
2023-05-19T23:20:29.127Z,66.13
2023-05-19T23:22:56.664Z,66.47
2023-05-19T23:25:24.190Z,66.33
2023-05-19T23:27:53.026Z,66.32
2023-05-19T23:30:20.654Z,66.14
2023-05-19T23:32:48.250Z,66.10
2023-05-19T23:35:17.995Z,66.25
2023-05-19T23:37:45.588Z,66.28
2023-05-19T23:40:13.696Z,66.59
2023-05-19T23:42:41.242Z,66.46
2023-05-19T23:45:10.997Z,66.72
2023-05-19T23:47:38.809Z,66.61
2023-05-19T23:50:07.089Z,66.70
2023-05-19T23:52:34.655Z,66.98
2023-05-19T23:55:03.483Z,67.56
2023-05-19T23:57:31.066Z,67.35
2023-05-19T23:59:58.800Z,67.77
